sensor_id;sensor_type;location;lat;lon;timestamp;P1;durP1;ratioP1;P2;durP2;ratioP2
80421;SDS011;69763;50.182;9.144;2024-02-15T00:02:21;7.43;;;4.22;;
80421;SDS011;69763;50.182;9.144;2024-02-15T00:04:46;9.70;;;4.45;;
80421;SDS011;69763;50.182;9.144;2024-02-15T00:07:11;8.40;;;4.53;;
80421;SDS011;69763;50.182;9.144;2024-02-15T00:09:37;11.00;;;4.30;;
80421;SDS011;69763;50.182;9.144;2024-02-15T00:12:04;9.95;;;4.60;;
80421;SDS011;69763;50.182;9.144;2024-02-15T00:14:30;7.10;;;4.15;;
80421;SDS011;69763;50.182;9.144;2024-02-15T00:16:55;8.85;;;4.10;;
80421;SDS011;69763;50.182;9.144;2024-02-15T00:19:21;6.97;;;4.05;;
80421;SDS011;69763;50.182;9.144;2024-02-15T00:21:46;10.90;;;4.30;;
80421;SDS011;69763;50.182;9.144;2024-02-15T00:24:12;6.70;;;4.00;;
80421;SDS011;69763;50.182;9.144;2024-02-15T00:26:38;8.57;;;3.55;;
80421;SDS011;69763;50.182;9.144;2024-02-15T00:29:04;6.55;;;4.10;;
80421;SDS011;69763;50.182;9.144;2024-02-15T00:33:55;7.43;;;3.83;;
80421;SDS011;69763;50.182;9.144;2024-02-15T00:36:20;7.45;;;3.65;;
80421;SDS011;69763;50.182;9.144;2024-02-15T00:38:46;5.40;;;3.63;;
80421;SDS011;69763;50.182;9.144;2024-02-15T00:41:11;7.57;;;3.78;;
80421;SDS011;69763;50.182;9.144;2024-02-15T00:43:36;8.75;;;3.30;;
80421;SDS011;69763;50.182;9.144;2024-02-15T00:46:03;8.90;;;4.05;;
80421;SDS011;69763;50.182;9.144;2024-02-15T00:48:29;6.43;;;3.80;;
80421;SDS011;69763;50.182;9.144;2024-02-15T00:50:54;4.97;;;3.30;;
80421;SDS011;69763;50.182;9.144;2024-02-15T00:53:19;7.60;;;3.20;;
80421;SDS011;69763;50.182;9.144;2024-02-15T00:55:45;8.80;;;3.78;;
80421;SDS011;69763;50.182;9.144;2024-02-15T00:58:10;7.90;;;4.00;;
80421;SDS011;69763;50.182;9.144;2024-02-15T01:00:35;7.40;;;3.83;;
80421;SDS011;69763;50.182;9.144;2024-02-15T01:03:02;6.53;;;3.80;;
80421;SDS011;69763;50.182;9.144;2024-02-15T01:05:28;5.20;;;3.10;;
80421;SDS011;69763;50.182;9.144;2024-02-15T01:07:53;6.63;;;3.47;;
80421;SDS011;69763;50.182;9.144;2024-02-15T01:10:19;4.97;;;3.45;;
80421;SDS011;69763;50.182;9.144;2024-02-15T01:12:44;10.20;;;3.42;;
80421;SDS011;69763;50.182;9.144;2024-02-15T01:15:09;5.22;;;3.47;;
80421;SDS011;69763;50.182;9.144;2024-02-15T01:17:35;7.30;;;3.28;;
80421;SDS011;69763;50.182;9.144;2024-02-15T01:20:02;4.63;;;3.13;;
80421;SDS011;69763;50.182;9.144;2024-02-15T01:22:27;5.03;;;3.03;;
80421;SDS011;69763;50.182;9.144;2024-02-15T01:24:53;8.55;;;3.70;;
80421;SDS011;69763;50.182;9.144;2024-02-15T01:27:18;5.75;;;3.40;;
80421;SDS011;69763;50.182;9.144;2024-02-15T01:29:43;7.00;;;3.53;;
80421;SDS011;69763;50.182;9.144;2024-02-15T01:32:09;6.43;;;3.35;;
80421;SDS011;69763;50.182;9.144;2024-02-15T01:34:34;9.10;;;3.95;;
80421;SDS011;69763;50.182;9.144;2024-02-15T01:37:01;6.95;;;3.50;;
80421;SDS011;69763;50.182;9.144;2024-02-15T01:41:51;6.47;;;2.90;;
80421;SDS011;69763;50.182;9.144;2024-02-15T01:44:17;6.72;;;3.28;;
80421;SDS011;69763;50.182;9.144;2024-02-15T01:46:42;7.70;;;3.83;;
80421;SDS011;69763;50.182;9.144;2024-02-15T01:49:08;10.07;;;3.50;;
80421;SDS011;69763;50.182;9.144;2024-02-15T01:51:33;10.02;;;4.30;;
80421;SDS011;69763;50.182;9.144;2024-02-15T01:54:02;5.82;;;3.47;;
80421;SDS011;69763;50.182;9.144;2024-02-15T01:56:28;7.72;;;3.42;;
80421;SDS011;69763;50.182;9.144;2024-02-15T01:58:54;7.63;;;3.25;;
80421;SDS011;69763;50.182;9.144;2024-02-15T02:01:20;4.60;;;3.28;;
80421;SDS011;69763;50.182;9.144;2024-02-15T02:03:46;9.38;;;3.95;;
80421;SDS011;69763;50.182;9.144;2024-02-15T02:06:12;8.73;;;3.70;;
80421;SDS011;69763;50.182;9.144;2024-02-15T02:08:37;4.90;;;3.28;;
80421;SDS011;69763;50.182;9.144;2024-02-15T02:11:04;8.15;;;4.20;;
80421;SDS011;69763;50.182;9.144;2024-02-15T02:13:30;5.07;;;3.00;;
80421;SDS011;69763;50.182;9.144;2024-02-15T02:15:55;5.78;;;3.50;;
80421;SDS011;69763;50.182;9.144;2024-02-15T02:18:21;7.25;;;3.28;;
80421;SDS011;69763;50.182;9.144;2024-02-15T02:20:46;8.77;;;3.78;;
80421;SDS011;69763;50.182;9.144;2024-02-15T02:23:13;6.88;;;3.95;;
80421;SDS011;69763;50.182;9.144;2024-02-15T02:25:40;9.02;;;3.42;;
80421;SDS011;69763;50.182;9.144;2024-02-15T02:28:06;9.65;;;3.30;;
80421;SDS011;69763;50.182;9.144;2024-02-15T02:30:33;4.72;;;3.30;;
80421;SDS011;69763;50.182;9.144;2024-02-15T02:32:58;5.85;;;3.03;;
80421;SDS011;69763;50.182;9.144;2024-02-15T02:35:23;6.13;;;3.65;;
80421;SDS011;69763;50.182;9.144;2024-02-15T02:37:49;6.57;;;3.38;;
80421;SDS011;69763;50.182;9.144;2024-02-15T02:40:14;7.00;;;3.10;;
80421;SDS011;69763;50.182;9.144;2024-02-15T02:42:48;8.00;;;3.47;;
80421;SDS011;69763;50.182;9.144;2024-02-15T02:45:14;6.55;;;3.53;;
80421;SDS011;69763;50.182;9.144;2024-02-15T02:47:39;5.05;;;2.92;;
80421;SDS011;69763;50.182;9.144;2024-02-15T02:50:05;11.90;;;3.80;;
80421;SDS011;69763;50.182;9.144;2024-02-15T02:52:31;6.60;;;3.58;;
80421;SDS011;69763;50.182;9.144;2024-02-15T02:54:57;10.77;;;3.30;;
80421;SDS011;69763;50.182;9.144;2024-02-15T02:57:22;11.60;;;3.33;;
80421;SDS011;69763;50.182;9.144;2024-02-15T02:59:49;6.90;;;3.53;;
80421;SDS011;69763;50.182;9.144;2024-02-15T03:04:39;5.93;;;3.40;;
80421;SDS011;69763;50.182;9.144;2024-02-15T03:07:05;11.05;;;3.70;;
80421;SDS011;69763;50.182;9.144;2024-02-15T03:09:30;5.03;;;3.00;;
80421;SDS011;69763;50.182;9.144;2024-02-15T03:11:56;7.93;;;3.30;;
80421;SDS011;69763;50.182;9.144;2024-02-15T03:14:21;5.43;;;3.53;;
80421;SDS011;69763;50.182;9.144;2024-02-15T03:16:48;8.35;;;3.90;;
80421;SDS011;69763;50.182;9.144;2024-02-15T03:19:13;4.97;;;3.20;;
80421;SDS011;69763;50.182;9.144;2024-02-15T03:21:39;11.50;;;3.70;;
80421;SDS011;69763;50.182;9.144;2024-02-15T03:24:04;5.93;;;3.65;;
80421;SDS011;69763;50.182;9.144;2024-02-15T03:26:30;8.75;;;3.67;;
80421;SDS011;69763;50.182;9.144;2024-02-15T03:28:56;6.28;;;3.20;;
80421;SDS011;69763;50.182;9.144;2024-02-15T03:31:22;5.40;;;3.00;;
80421;SDS011;69763;50.182;9.144;2024-02-15T03:33:48;7.43;;;3.38;;
80421;SDS011;69763;50.182;9.144;2024-02-15T03:38:40;7.40;;;3.60;;
80421;SDS011;69763;50.182;9.144;2024-02-15T03:41:06;7.95;;;3.47;;
80421;SDS011;69763;50.182;9.144;2024-02-15T03:43:31;9.35;;;4.00;;
80421;SDS011;69763;50.182;9.144;2024-02-15T03:45:56;8.38;;;3.35;;
80421;SDS011;69763;50.182;9.144;2024-02-15T03:48:22;5.00;;;2.85;;
80421;SDS011;69763;50.182;9.144;2024-02-15T03:50:49;5.45;;;3.25;;
80421;SDS011;69763;50.182;9.144;2024-02-15T03:55:39;5.40;;;3.33;;
80421;SDS011;69763;50.182;9.144;2024-02-15T03:58:04;12.65;;;4.25;;
80421;SDS011;69763;50.182;9.144;2024-02-15T04:00:30;15.15;;;5.75;;
80421;SDS011;69763;50.182;9.144;2024-02-15T04:02:55;26.67;;;8.55;;
80421;SDS011;69763;50.182;9.144;2024-02-15T04:05:21;16.67;;;6.93;;
80421;SDS011;69763;50.182;9.144;2024-02-15T04:07:47;10.52;;;5.60;;
80421;SDS011;69763;50.182;9.144;2024-02-15T04:10:13;14.88;;;4.90;;
80421;SDS011;69763;50.182;9.144;2024-02-15T04:12:38;8.00;;;4.38;;
80421;SDS011;69763;50.182;9.144;2024-02-15T04:15:04;7.50;;;3.90;;
80421;SDS011;69763;50.182;9.144;2024-02-15T04:17:31;7.60;;;3.70;;
80421;SDS011;69763;50.182;9.144;2024-02-15T04:19:57;5.20;;;3.53;;
80421;SDS011;69763;50.182;9.144;2024-02-15T04:22:22;4.95;;;3.30;;
80421;SDS011;69763;50.182;9.144;2024-02-15T04:24:49;6.28;;;3.25;;
80421;SDS011;69763;50.182;9.144;2024-02-15T04:27:14;6.72;;;3.45;;
80421;SDS011;69763;50.182;9.144;2024-02-15T04:29:39;7.22;;;3.75;;
80421;SDS011;69763;50.182;9.144;2024-02-15T04:32:05;7.07;;;3.63;;
80421;SDS011;69763;50.182;9.144;2024-02-15T04:34:31;10.82;;;4.22;;
80421;SDS011;69763;50.182;9.144;2024-02-15T04:36:56;10.65;;;3.00;;
80421;SDS011;69763;50.182;9.144;2024-02-15T04:39:22;5.18;;;3.35;;
80421;SDS011;69763;50.182;9.144;2024-02-15T04:41:48;8.52;;;3.28;;
80421;SDS011;69763;50.182;9.144;2024-02-15T04:46:39;4.93;;;3.37;;
80421;SDS011;69763;50.182;9.144;2024-02-15T04:49:04;5.68;;;3.28;;
80421;SDS011;69763;50.182;9.144;2024-02-15T04:51:30;7.35;;;3.15;;
80421;SDS011;69763;50.182;9.144;2024-02-15T04:53:55;6.10;;;3.10;;
80421;SDS011;69763;50.182;9.144;2024-02-15T04:56:20;12.48;;;4.00;;
80421;SDS011;69763;50.182;9.144;2024-02-15T04:58:47;6.25;;;3.00;;
80421;SDS011;69763;50.182;9.144;2024-02-15T05:03:38;7.40;;;3.35;;
80421;SDS011;69763;50.182;9.144;2024-02-15T05:06:04;10.45;;;3.40;;
80421;SDS011;69763;50.182;9.144;2024-02-15T05:08:29;12.80;;;3.40;;
80421;SDS011;69763;50.182;9.144;2024-02-15T05:10:54;8.68;;;3.28;;
80421;SDS011;69763;50.182;9.144;2024-02-15T05:13:20;10.05;;;3.58;;
80421;SDS011;69763;50.182;9.144;2024-02-15T05:15:46;10.18;;;3.72;;
80421;SDS011;69763;50.182;9.144;2024-02-15T05:20:37;8.83;;;3.63;;
80421;SDS011;69763;50.182;9.144;2024-02-15T05:23:02;6.82;;;3.17;;
80421;SDS011;69763;50.182;9.144;2024-02-15T05:25:28;8.75;;;3.53;;
80421;SDS011;69763;50.182;9.144;2024-02-15T05:27:53;6.28;;;3.75;;
80421;SDS011;69763;50.182;9.144;2024-02-15T05:30:19;5.00;;;3.60;;
80421;SDS011;69763;50.182;9.144;2024-02-15T05:32:45;7.75;;;3.63;;
80421;SDS011;69763;50.182;9.144;2024-02-15T05:35:11;6.35;;;3.45;;
80421;SDS011;69763;50.182;9.144;2024-02-15T05:37:36;7.50;;;3.70;;
80421;SDS011;69763;50.182;9.144;2024-02-15T05:40:02;9.07;;;3.67;;
80421;SDS011;69763;50.182;9.144;2024-02-15T05:42:28;10.48;;;3.50;;
80421;SDS011;69763;50.182;9.144;2024-02-15T05:44:53;8.57;;;3.55;;
80421;SDS011;69763;50.182;9.144;2024-02-15T05:47:19;6.97;;;4.22;;
80421;SDS011;69763;50.182;9.144;2024-02-15T05:49:46;8.13;;;3.50;;
80421;SDS011;69763;50.182;9.144;2024-02-15T05:52:11;8.32;;;3.58;;
80421;SDS011;69763;50.182;9.144;2024-02-15T05:54:36;7.90;;;3.92;;
80421;SDS011;69763;50.182;9.144;2024-02-15T05:57:02;7.60;;;4.05;;
80421;SDS011;69763;50.182;9.144;2024-02-15T05:59:27;9.30;;;4.03;;
80421;SDS011;69763;50.182;9.144;2024-02-15T06:01:53;5.72;;;3.63;;
80421;SDS011;69763;50.182;9.144;2024-02-15T06:04:18;6.85;;;4.20;;
80421;SDS011;69763;50.182;9.144;2024-02-15T06:06:45;7.53;;;3.53;;
80421;SDS011;69763;50.182;9.144;2024-02-15T06:09:10;9.50;;;4.75;;
80421;SDS011;69763;50.182;9.144;2024-02-15T06:11:35;10.00;;;3.90;;
80421;SDS011;69763;50.182;9.144;2024-02-15T06:14:01;8.45;;;3.80;;
80421;SDS011;69763;50.182;9.144;2024-02-15T06:16:26;8.77;;;4.03;;
80421;SDS011;69763;50.182;9.144;2024-02-15T06:18:52;9.52;;;3.58;;
80421;SDS011;69763;50.182;9.144;2024-02-15T06:21:17;7.18;;;4.13;;
80421;SDS011;69763;50.182;9.144;2024-02-15T06:23:44;5.78;;;3.22;;
80421;SDS011;69763;50.182;9.144;2024-02-15T06:28:34;11.03;;;3.50;;
80421;SDS011;69763;50.182;9.144;2024-02-15T06:31:00;10.90;;;3.20;;
80421;SDS011;69763;50.182;9.144;2024-02-15T06:33:25;4.70;;;3.20;;
80421;SDS011;69763;50.182;9.144;2024-02-15T06:35:50;6.70;;;3.63;;
80421;SDS011;69763;50.182;9.144;2024-02-15T06:38:16;13.07;;;4.25;;
80421;SDS011;69763;50.182;9.144;2024-02-15T06:40:42;5.88;;;3.28;;
80421;SDS011;69763;50.182;9.144;2024-02-15T06:43:08;6.70;;;3.42;;
80421;SDS011;69763;50.182;9.144;2024-02-15T06:45:33;5.43;;;3.15;;
80421;SDS011;69763;50.182;9.144;2024-02-15T06:47:59;5.65;;;3.20;;
80421;SDS011;69763;50.182;9.144;2024-02-15T06:50:24;9.07;;;3.42;;
80421;SDS011;69763;50.182;9.144;2024-02-15T06:52:49;13.15;;;4.75;;
80421;SDS011;69763;50.182;9.144;2024-02-15T06:55:15;8.53;;;4.67;;
80421;SDS011;69763;50.182;9.144;2024-02-15T06:57:42;9.68;;;4.18;;
80421;SDS011;69763;50.182;9.144;2024-02-15T07:00:09;10.13;;;3.78;;
80421;SDS011;69763;50.182;9.144;2024-02-15T07:02:35;7.20;;;3.30;;
80421;SDS011;69763;50.182;9.144;2024-02-15T07:05:00;8.85;;;4.13;;
80421;SDS011;69763;50.182;9.144;2024-02-15T07:07:26;8.05;;;3.83;;
80421;SDS011;69763;50.182;9.144;2024-02-15T07:09:51;13.40;;;5.63;;
80421;SDS011;69763;50.182;9.144;2024-02-15T07:12:16;16.88;;;6.22;;
80421;SDS011;69763;50.182;9.144;2024-02-15T07:14:43;17.70;;;5.95;;
80421;SDS011;69763;50.182;9.144;2024-02-15T07:17:09;14.25;;;5.80;;
80421;SDS011;69763;50.182;9.144;2024-02-15T07:19:35;12.07;;;5.35;;
80421;SDS011;69763;50.182;9.144;2024-02-15T07:22:00;12.02;;;4.28;;
80421;SDS011;69763;50.182;9.144;2024-02-15T07:24:25;7.90;;;4.25;;
80421;SDS011;69763;50.182;9.144;2024-02-15T07:26:51;10.25;;;4.07;;
80421;SDS011;69763;50.182;9.144;2024-02-15T07:29:16;9.93;;;3.75;;
80421;SDS011;69763;50.182;9.144;2024-02-15T07:31:43;6.43;;;3.13;;
80421;SDS011;69763;50.182;9.144;2024-02-15T07:34:08;6.75;;;3.22;;
80421;SDS011;69763;50.182;9.144;2024-02-15T07:36:34;4.63;;;2.85;;
80421;SDS011;69763;50.182;9.144;2024-02-15T07:38:59;7.72;;;3.25;;
80421;SDS011;69763;50.182;9.144;2024-02-15T07:41:24;6.40;;;2.72;;
80421;SDS011;69763;50.182;9.144;2024-02-15T07:43:50;7.15;;;3.10;;
80421;SDS011;69763;50.182;9.144;2024-02-15T07:46:16;4.82;;;2.75;;
80421;SDS011;69763;50.182;9.144;2024-02-15T07:48:43;8.70;;;3.05;;
80421;SDS011;69763;50.182;9.144;2024-02-15T07:51:09;8.32;;;3.03;;
80421;SDS011;69763;50.182;9.144;2024-02-15T07:53:34;7.53;;;3.00;;
80421;SDS011;69763;50.182;9.144;2024-02-15T07:55:59;3.88;;;2.35;;
80421;SDS011;69763;50.182;9.144;2024-02-15T07:58:25;7.20;;;2.63;;
80421;SDS011;69763;50.182;9.144;2024-02-15T08:00:50;6.88;;;2.47;;
80421;SDS011;69763;50.182;9.144;2024-02-15T08:03:15;6.78;;;3.05;;
80421;SDS011;69763;50.182;9.144;2024-02-15T08:05:42;6.53;;;2.60;;
80421;SDS011;69763;50.182;9.144;2024-02-15T08:10:33;3.40;;;1.93;;
80421;SDS011;69763;50.182;9.144;2024-02-15T08:12:58;3.95;;;2.45;;
80421;SDS011;69763;50.182;9.144;2024-02-15T08:15:23;7.18;;;2.38;;
80421;SDS011;69763;50.182;9.144;2024-02-15T08:17:49;6.20;;;2.28;;
80421;SDS011;69763;50.182;9.144;2024-02-15T08:20:14;7.07;;;2.60;;
80421;SDS011;69763;50.182;9.144;2024-02-15T08:22:42;4.32;;;2.55;;
80421;SDS011;69763;50.182;9.144;2024-02-15T08:25:08;5.10;;;2.20;;
80421;SDS011;69763;50.182;9.144;2024-02-15T08:27:34;7.00;;;2.38;;
80421;SDS011;69763;50.182;9.144;2024-02-15T08:30:00;4.28;;;2.65;;
80421;SDS011;69763;50.182;9.144;2024-02-15T08:32:25;3.67;;;2.22;;
80421;SDS011;69763;50.182;9.144;2024-02-15T08:34:50;5.47;;;2.65;;
80421;SDS011;69763;50.182;9.144;2024-02-15T08:37:16;6.22;;;2.38;;
80421;SDS011;69763;50.182;9.144;2024-02-15T08:39:43;8.27;;;2.25;;
80421;SDS011;69763;50.182;9.144;2024-02-15T08:42:08;13.85;;;3.17;;
80421;SDS011;69763;50.182;9.144;2024-02-15T08:44:34;5.00;;;2.63;;
80421;SDS011;69763;50.182;9.144;2024-02-15T08:46:59;5.05;;;2.45;;
80421;SDS011;69763;50.182;9.144;2024-02-15T08:49:24;5.38;;;2.80;;
80421;SDS011;69763;50.182;9.144;2024-02-15T08:51:50;4.38;;;2.05;;
80421;SDS011;69763;50.182;9.144;2024-02-15T08:54:15;7.53;;;2.42;;
80421;SDS011;69763;50.182;9.144;2024-02-15T08:56:42;5.40;;;2.47;;
80421;SDS011;69763;50.182;9.144;2024-02-15T08:59:07;5.65;;;2.53;;
80421;SDS011;69763;50.182;9.144;2024-02-15T09:01:32;4.13;;;2.10;;
80421;SDS011;69763;50.182;9.144;2024-02-15T09:03:58;3.80;;;1.98;;
80421;SDS011;69763;50.182;9.144;2024-02-15T09:06:23;6.40;;;2.42;;
80421;SDS011;69763;50.182;9.144;2024-02-15T09:08:49;3.97;;;2.20;;
80421;SDS011;69763;50.182;9.144;2024-02-15T09:11:14;4.50;;;2.03;;
80421;SDS011;69763;50.182;9.144;2024-02-15T09:13:41;4.80;;;2.40;;
80421;SDS011;69763;50.182;9.144;2024-02-15T09:16:06;6.78;;;2.05;;
80421;SDS011;69763;50.182;9.144;2024-02-15T09:18:31;6.70;;;2.53;;
80421;SDS011;69763;50.182;9.144;2024-02-15T09:23:23;5.83;;;2.20;;
80421;SDS011;69763;50.182;9.144;2024-02-15T09:25:48;3.83;;;2.00;;
80421;SDS011;69763;50.182;9.144;2024-02-15T09:28:14;8.85;;;2.78;;
80421;SDS011;69763;50.182;9.144;2024-02-15T09:30:41;3.45;;;2.35;;
80421;SDS011;69763;50.182;9.144;2024-02-15T09:33:06;8.43;;;2.38;;
80421;SDS011;69763;50.182;9.144;2024-02-15T09:35:32;7.10;;;2.10;;
80421;SDS011;69763;50.182;9.144;2024-02-15T09:37:57;4.43;;;2.35;;
80421;SDS011;69763;50.182;9.144;2024-02-15T09:40:23;4.07;;;2.17;;
80421;SDS011;69763;50.182;9.144;2024-02-15T09:42:48;5.22;;;2.17;;
80421;SDS011;69763;50.182;9.144;2024-02-15T09:45:14;3.75;;;2.15;;
80421;SDS011;69763;50.182;9.144;2024-02-15T09:47:41;3.63;;;2.17;;
80421;SDS011;69763;50.182;9.144;2024-02-15T09:50:08;5.65;;;2.30;;
80421;SDS011;69763;50.182;9.144;2024-02-15T09:52:34;5.85;;;2.58;;
80421;SDS011;69763;50.182;9.144;2024-02-15T09:55:00;4.00;;;2.15;;
80421;SDS011;69763;50.182;9.144;2024-02-15T09:57:27;6.30;;;2.33;;
80421;SDS011;69763;50.182;9.144;2024-02-15T09:59:53;10.65;;;2.88;;
80421;SDS011;69763;50.182;9.144;2024-02-15T10:02:19;14.05;;;5.53;;
80421;SDS011;69763;50.182;9.144;2024-02-15T10:04:46;12.57;;;5.85;;
80421;SDS011;69763;50.182;9.144;2024-02-15T10:07:12;10.00;;;4.38;;
80421;SDS011;69763;50.182;9.144;2024-02-15T10:09:37;6.97;;;3.00;;
80421;SDS011;69763;50.182;9.144;2024-02-15T10:12:03;4.93;;;2.30;;
80421;SDS011;69763;50.182;9.144;2024-02-15T10:14:30;3.85;;;1.85;;
80421;SDS011;69763;50.182;9.144;2024-02-15T10:16:55;5.50;;;2.25;;
80421;SDS011;69763;50.182;9.144;2024-02-15T10:19:21;3.67;;;1.90;;
80421;SDS011;69763;50.182;9.144;2024-02-15T10:21:48;6.05;;;1.85;;
80421;SDS011;69763;50.182;9.144;2024-02-15T10:24:17;4.88;;;1.95;;
80421;SDS011;69763;50.182;9.144;2024-02-15T10:26:43;3.42;;;1.80;;
80421;SDS011;69763;50.182;9.144;2024-02-15T10:29:09;6.05;;;2.00;;
80421;SDS011;69763;50.182;9.144;2024-02-15T10:31:35;5.70;;;2.00;;
80421;SDS011;69763;50.182;9.144;2024-02-15T10:34:04;6.93;;;2.33;;
80421;SDS011;69763;50.182;9.144;2024-02-15T10:36:31;5.22;;;2.03;;
80421;SDS011;69763;50.182;9.144;2024-02-15T10:39:02;4.97;;;2.25;;
80421;SDS011;69763;50.182;9.144;2024-02-15T10:41:35;3.15;;;2.00;;
80421;SDS011;69763;50.182;9.144;2024-02-15T10:46:27;4.32;;;1.83;;
80421;SDS011;69763;50.182;9.144;2024-02-15T10:48:53;6.13;;;1.70;;
80421;SDS011;69763;50.182;9.144;2024-02-15T10:51:18;2.95;;;1.80;;
80421;SDS011;69763;50.182;9.144;2024-02-15T10:53:46;3.28;;;1.80;;
80421;SDS011;69763;50.182;9.144;2024-02-15T10:56:21;8.55;;;2.13;;
80421;SDS011;69763;50.182;9.144;2024-02-15T10:58:54;4.50;;;2.10;;
80421;SDS011;69763;50.182;9.144;2024-02-15T11:01:25;4.32;;;1.95;;
80421;SDS011;69763;50.182;9.144;2024-02-15T11:03:56;3.58;;;2.00;;
80421;SDS011;69763;50.182;9.144;2024-02-15T11:06:24;3.33;;;1.90;;
80421;SDS011;69763;50.182;9.144;2024-02-15T11:08:52;3.22;;;1.80;;
80421;SDS011;69763;50.182;9.144;2024-02-15T11:11:18;4.60;;;2.30;;
80421;SDS011;69763;50.182;9.144;2024-02-15T11:13:45;3.53;;;2.10;;
80421;SDS011;69763;50.182;9.144;2024-02-15T11:16:11;5.32;;;2.50;;
80421;SDS011;69763;50.182;9.144;2024-02-15T11:19:06;4.13;;;2.28;;
80421;SDS011;69763;50.182;9.144;2024-02-15T11:24:24;3.97;;;2.20;;
80421;SDS011;69763;50.182;9.144;2024-02-15T11:26:50;7.25;;;1.95;;
80421;SDS011;69763;50.182;9.144;2024-02-15T11:32:38;4.75;;;1.95;;
80421;SDS011;69763;50.182;9.144;2024-02-15T11:35:08;3.50;;;1.90;;
80421;SDS011;69763;50.182;9.144;2024-02-15T11:37:56;2.58;;;1.70;;
80421;SDS011;69763;50.182;9.144;2024-02-15T11:40:22;6.28;;;2.75;;
80421;SDS011;69763;50.182;9.144;2024-02-15T11:42:48;9.68;;;2.72;;
80421;SDS011;69763;50.182;9.144;2024-02-15T11:45:16;4.07;;;2.30;;
80421;SDS011;69763;50.182;9.144;2024-02-15T11:47:41;3.70;;;1.98;;
80421;SDS011;69763;50.182;9.144;2024-02-15T11:50:07;5.65;;;2.25;;
80421;SDS011;69763;50.182;9.144;2024-02-15T11:52:34;7.30;;;2.08;;
80421;SDS011;69763;50.182;9.144;2024-02-15T11:55:05;5.28;;;1.90;;
80421;SDS011;69763;50.182;9.144;2024-02-15T11:57:31;3.97;;;1.90;;
80421;SDS011;69763;50.182;9.144;2024-02-15T11:59:56;8.07;;;2.90;;
80421;SDS011;69763;50.182;9.144;2024-02-15T12:02:23;4.78;;;1.88;;
80421;SDS011;69763;50.182;9.144;2024-02-15T12:04:49;4.03;;;2.25;;
80421;SDS011;69763;50.182;9.144;2024-02-15T12:07:14;6.28;;;2.15;;
80421;SDS011;69763;50.182;9.144;2024-02-15T12:09:40;4.72;;;2.17;;
80421;SDS011;69763;50.182;9.144;2024-02-15T12:12:06;5.60;;;2.30;;
80421;SDS011;69763;50.182;9.144;2024-02-15T12:14:31;4.45;;;1.95;;
80421;SDS011;69763;50.182;9.144;2024-02-15T12:17:03;4.13;;;1.80;;
80421;SDS011;69763;50.182;9.144;2024-02-15T12:21:56;2.63;;;1.80;;
80421;SDS011;69763;50.182;9.144;2024-02-15T12:24:22;3.75;;;1.70;;
80421;SDS011;69763;50.182;9.144;2024-02-15T12:26:48;4.72;;;1.77;;
80421;SDS011;69763;50.182;9.144;2024-02-15T12:29:16;5.38;;;1.90;;
80421;SDS011;69763;50.182;9.144;2024-02-15T12:31:42;4.45;;;1.85;;
80421;SDS011;69763;50.182;9.144;2024-02-15T12:34:08;7.45;;;2.22;;
80421;SDS011;69763;50.182;9.144;2024-02-15T12:36:35;3.42;;;1.77;;
80421;SDS011;69763;50.182;9.144;2024-02-15T12:39:01;3.30;;;1.92;;
80421;SDS011;69763;50.182;9.144;2024-02-15T12:41:27;4.25;;;2.00;;
80421;SDS011;69763;50.182;9.144;2024-02-15T12:43:53;8.15;;;2.15;;
80421;SDS011;69763;50.182;9.144;2024-02-15T12:46:18;3.85;;;1.88;;
80421;SDS011;69763;50.182;9.144;2024-02-15T12:48:44;5.80;;;2.20;;
80421;SDS011;69763;50.182;9.144;2024-02-15T12:51:13;3.50;;;1.80;;
80421;SDS011;69763;50.182;9.144;2024-02-15T12:53:40;2.88;;;1.80;;
80421;SDS011;69763;50.182;9.144;2024-02-15T12:56:05;3.17;;;1.75;;
80421;SDS011;69763;50.182;9.144;2024-02-15T12:58:30;2.45;;;1.52;;
80421;SDS011;69763;50.182;9.144;2024-02-15T13:00:56;4.85;;;1.70;;
80421;SDS011;69763;50.182;9.144;2024-02-15T13:03:22;4.53;;;1.77;;
80421;SDS011;69763;50.182;9.144;2024-02-15T13:05:47;2.38;;;1.60;;
80421;SDS011;69763;50.182;9.144;2024-02-15T13:08:12;4.63;;;1.88;;
80421;SDS011;69763;50.182;9.144;2024-02-15T13:10:40;6.97;;;2.00;;
80421;SDS011;69763;50.182;9.144;2024-02-15T13:13:06;3.03;;;1.58;;
80421;SDS011;69763;50.182;9.144;2024-02-15T13:15:31;5.10;;;1.80;;
80421;SDS011;69763;50.182;9.144;2024-02-15T13:17:57;4.65;;;1.80;;
80421;SDS011;69763;50.182;9.144;2024-02-15T13:20:22;4.45;;;1.77;;
80421;SDS011;69763;50.182;9.144;2024-02-15T13:22:48;3.55;;;1.85;;
80421;SDS011;69763;50.182;9.144;2024-02-15T13:25:14;5.18;;;1.83;;
80421;SDS011;69763;50.182;9.144;2024-02-15T13:27:40;5.18;;;1.90;;
80421;SDS011;69763;50.182;9.144;2024-02-15T13:30:06;4.93;;;1.77;;
80421;SDS011;69763;50.182;9.144;2024-02-15T13:32:32;4.40;;;1.70;;
80421;SDS011;69763;50.182;9.144;2024-02-15T13:34:57;2.95;;;1.55;;
80421;SDS011;69763;50.182;9.144;2024-02-15T13:37:23;2.53;;;1.70;;
80421;SDS011;69763;50.182;9.144;2024-02-15T13:39:48;7.18;;;1.75;;
80421;SDS011;69763;50.182;9.144;2024-02-15T13:42:14;7.35;;;1.77;;
80421;SDS011;69763;50.182;9.144;2024-02-15T13:44:41;3.10;;;1.48;;
80421;SDS011;69763;50.182;9.144;2024-02-15T13:47:07;4.35;;;1.65;;
80421;SDS011;69763;50.182;9.144;2024-02-15T13:49:32;4.13;;;1.70;;
80421;SDS011;69763;50.182;9.144;2024-02-15T13:51:58;5.32;;;1.48;;
80421;SDS011;69763;50.182;9.144;2024-02-15T13:54:23;5.80;;;1.70;;
80421;SDS011;69763;50.182;9.144;2024-02-15T13:56:48;6.03;;;1.70;;
80421;SDS011;69763;50.182;9.144;2024-02-15T13:59:14;4.18;;;1.70;;
80421;SDS011;69763;50.182;9.144;2024-02-15T14:01:41;3.35;;;1.45;;
80421;SDS011;69763;50.182;9.144;2024-02-15T14:04:06;6.07;;;1.67;;
80421;SDS011;69763;50.182;9.144;2024-02-15T14:06:31;5.70;;;1.60;;
80421;SDS011;69763;50.182;9.144;2024-02-15T14:08:57;7.22;;;1.80;;
80421;SDS011;69763;50.182;9.144;2024-02-15T14:11:22;6.03;;;1.60;;
80421;SDS011;69763;50.182;9.144;2024-02-15T14:13:47;2.88;;;1.55;;
80421;SDS011;69763;50.182;9.144;2024-02-15T14:16:13;4.70;;;1.98;;
80421;SDS011;69763;50.182;9.144;2024-02-15T14:18:39;3.65;;;1.67;;
80421;SDS011;69763;50.182;9.144;2024-02-15T14:21:05;4.75;;;1.50;;
80421;SDS011;69763;50.182;9.144;2024-02-15T14:23:30;3.60;;;1.85;;
80421;SDS011;69763;50.182;9.144;2024-02-15T14:25:55;2.53;;;1.58;;
80421;SDS011;69763;50.182;9.144;2024-02-15T14:28:21;4.13;;;1.50;;
80421;SDS011;69763;50.182;9.144;2024-02-15T14:30:46;4.03;;;1.67;;
80421;SDS011;69763;50.182;9.144;2024-02-15T14:33:11;5.78;;;1.90;;
80421;SDS011;69763;50.182;9.144;2024-02-15T14:35:38;3.15;;;1.38;;
80421;SDS011;69763;50.182;9.144;2024-02-15T14:38:04;6.35;;;2.65;;
80421;SDS011;69763;50.182;9.144;2024-02-15T14:40:31;2.92;;;1.58;;
80421;SDS011;69763;50.182;9.144;2024-02-15T14:42:57;5.30;;;1.52;;
80421;SDS011;69763;50.182;9.144;2024-02-15T14:45:22;5.72;;;2.10;;
80421;SDS011;69763;50.182;9.144;2024-02-15T14:47:48;3.70;;;1.65;;
80421;SDS011;69763;50.182;9.144;2024-02-15T14:50:13;6.15;;;2.22;;
80421;SDS011;69763;50.182;9.144;2024-02-15T14:52:40;3.30;;;1.35;;
80421;SDS011;69763;50.182;9.144;2024-02-15T14:55:06;3.65;;;1.73;;
80421;SDS011;69763;50.182;9.144;2024-02-15T14:57:31;3.78;;;1.55;;
80421;SDS011;69763;50.182;9.144;2024-02-15T14:59:57;2.47;;;1.30;;
80421;SDS011;69763;50.182;9.144;2024-02-15T15:02:22;4.57;;;1.80;;
80421;SDS011;69763;50.182;9.144;2024-02-15T15:04:47;5.28;;;1.42;;
80421;SDS011;69763;50.182;9.144;2024-02-15T15:07:13;1.95;;;1.10;;
80421;SDS011;69763;50.182;9.144;2024-02-15T15:09:40;3.75;;;1.40;;
80421;SDS011;69763;50.182;9.144;2024-02-15T15:12:06;4.05;;;1.45;;
80421;SDS011;69763;50.182;9.144;2024-02-15T15:14:31;3.47;;;1.73;;
80421;SDS011;69763;50.182;9.144;2024-02-15T15:16:56;2.17;;;1.20;;